Date,TemperatureHighF,TemperatureAvgF,TemperatureLowF,DewpointHighF,DewpointAvgF,DewpointLowF,HumidityHigh,HumidityAvg,HumidityLow,PressureMaxIn,PressureMinIn,WindSpeedMaxMPH,WindSpeedAvgMPH,GustSpeedMaxMPH,PrecipitationSumIn
2013-9-1,70.7,63.1,52.0,62.7,54.5,47.6,87,74,62,29.99,29.70,6,0,6,0.00
2013-9-2,71.3,59.5,49.2,54.5,49.9,45.1,88,72,48,30.08,29.98,3,0,3,0.00
2013-9-3,82.1,64.1,41.5,62.2,53.6,38.2,91,71,46,30.06,29.94,5,0,5,0.00
2013-9-4,83.4,69.8,55.1,63.1,57.3,51.7,90,67,45,30.13,29.97,5,0,5,0.00
2013-9-5,83.8,70.9,53.2,58.5,52.7,48.2,89,57,36,30.19,30.10,6,0,6,0.00
2013-9-6,92.5,80.5,64.2,70.9,67.1,60.5,91,66,45,30.02,29.77,6,0,7,0.00
2013-9-7,89.8,77.8,65.2,72.2,67.3,60.6,91,72,52,30.00,29.80,5,0,5,0.00
2013-9-8,68.5,60.3,56.8,60.9,54.2,48.8,91,81,61,30.03,29.84,3,0,3,1.65
2013-9-9,73.8,66.7,59.5,69.6,64.0,56.9,92,91,85,29.85,29.61,6,0,6,0.17
2013-9-10,80.2,68.4,58.9,66.7,61.6,55.5,91,80,48,29.92,29.70,11,0,11,0.01
2013-9-11,81.0,66.3,56.0,62.4,55.8,50.2,92,71,42,30.07,29.91,10,0,10,0.00
2013-9-12,71.3,59.0,48.5,54.8,49.5,44.3,91,73,44,30.23,30.07,7,0,7,0.00
2013-9-13,71.1,55.1,40.6,51.8,45.4,37.6,91,72,44,30.26,30.02,5,0,5,0.00
2013-9-14,68.5,54.4,45.2,54.7,49.2,42.0,91,84,57,30.03,29.88,6,0,6,1.38
2013-9-15,58.4,54.1,43.2,55.0,50.5,39.9,92,88,73,30.32,29.89,3,0,3,0.02
2013-9-16,65.6,49.8,37.0,46.0,40.4,34.3,92,73,37,30.41,30.20,5,0,5,0.01
2013-9-17,63.5,54.6,45.1,54.9,48.8,41.2,90,81,72,30.20,29.89,12,0,12,0.00
2013-9-18,71.0,63.9,57.1,66.0,60.9,53.9,92,90,83,29.89,29.60,5,0,6,0.02
2013-9-19,68.7,64.9,56.4,65.5,61.8,52.9,92,90,82,29.76,29.54,9,0,9,0.44
2013-9-20,61.1,55.7,50.5,53.7,50.0,45.7,92,81,64,29.92,29.73,7,0,7,0.09
2013-9-21,63.2,50.2,40.5,48.8,43.4,37.6,95,79,52,30.00,29.89,5,0,5,0.00
2013-9-22,71.0,55.9,41.6,55.8,48.0,38.7,91,76,56,29.94,29.78,11,1,11,0.11
2013-9-23,71.0,59.6,53.6,54.1,51.7,48.8,84,76,54,29.86,29.78,6,0,16,0.00
2013-9-24,71.3,58.7,49.0,57.8,51.4,45.9,91,78,58,29.93,29.85,6,0,6,0.00
2013-9-25,73.0,58.6,45.6,56.8,50.0,42.7,92,75,51,29.93,29.81,9,0,9,0.00
2013-9-26,77.6,65.8,55.3,60.8,55.7,49.8,83,71,54,29.86,29.72,17,1,17,0.00
2013-9-27,73.1,68.2,63.6,66.8,61.9,58.4,89,80,67,29.81,29.67,19,1,19,0.22
2013-9-28,72.8,59.0,43.8,61.6,52.3,40.7,89,79,67,29.85,29.50,6,1,14,0.30
2013-9-29,74.7,55.9,38.6,51.8,44.9,35.9,91,70,38,29.90,29.66,7,0,13,0.00
2013-9-30,74.5,63.1,52.7,57.2,50.9,45.2,83,65,49,29.66,29.51,9,0,9,0.00